createdAt,value
2019-01-03T00:00:31.204Z,0.00
2019-01-03T00:03:21.860Z,0.00
2019-01-03T00:06:15.282Z,0.00
2019-01-03T00:08:58.270Z,0.00
2019-01-03T00:11:47.351Z,0.00
2019-01-03T00:14:36.382Z,0.00
2019-01-03T00:17:35.814Z,0.00
2019-01-03T00:20:38.186Z,0.00
2019-01-03T00:23:40.500Z,0.00
2019-01-03T00:26:29.301Z,0.00
2019-01-03T00:29:29.701Z,0.00
2019-01-03T00:32:18.428Z,0.00
2019-01-03T00:35:26.696Z,0.00
2019-01-03T00:38:15.578Z,-0.10
2019-01-03T00:41:05.769Z,-0.10
2019-01-03T00:43:58.630Z,-0.10
2019-01-03T00:46:51.376Z,-0.10
2019-01-03T00:49:44.249Z,-0.10
2019-01-03T00:52:26.251Z,-0.10
2019-01-03T00:55:31.646Z,0.00
2019-01-03T00:58:20.399Z,0.00
2019-01-03T01:01:09.330Z,0.00
2019-01-03T01:04:17.724Z,0.00
2019-01-03T01:07:00.429Z,-0.10
2019-01-03T01:10:05.411Z,-0.10
2019-01-03T01:12:55.520Z,0.00
2019-01-03T01:15:44.574Z,0.00
2019-01-03T01:18:39.951Z,0.00
2019-01-03T01:21:30.113Z,0.00
2019-01-03T01:24:26.863Z,0.00
2019-01-03T01:27:20.016Z,0.00
2019-01-03T01:30:17.384Z,0.00
2019-01-03T01:33:06.132Z,0.00
2019-01-03T01:36:17.799Z,0.00
2019-01-03T01:39:09.690Z,0.10
2019-01-03T01:42:14.741Z,0.00
2019-01-03T01:45:16.853Z,0.00
2019-01-03T01:48:15.843Z,0.00
2019-01-03T01:51:04.568Z,0.00
2019-01-03T01:54:03.805Z,0.00
2019-01-03T01:56:56.803Z,0.00
2019-01-03T01:59:52.640Z,0.00
2019-01-03T02:03:00.839Z,0.00
2019-01-03T02:05:49.697Z,-0.10
2019-01-03T02:08:38.679Z,0.00
2019-01-03T02:11:41.068Z,-0.10
2019-01-03T02:14:31.085Z,-0.10
2019-01-03T02:17:20.115Z,0.00
2019-01-03T02:20:09.230Z,-0.10
2019-01-03T02:22:59.388Z,-0.10
2019-01-03T02:25:48.327Z,-0.10
2019-01-03T02:28:47.249Z,-0.10
2019-01-03T02:31:49.621Z,0.00
2019-01-03T02:34:38.338Z,0.00
2019-01-03T02:37:36.908Z,0.00
2019-01-03T02:40:45.300Z,0.00
2019-01-03T02:43:35.867Z,0.00
2019-01-03T02:46:24.497Z,-0.10
2019-01-03T02:49:17.774Z,-0.10
2019-01-03T02:52:10.777Z,-0.10
2019-01-03T02:55:07.411Z,-0.10
2019-01-03T02:57:56.372Z,-0.10
2019-01-03T03:00:45.313Z,-0.20
2019-01-03T03:03:30.758Z,-0.20
2019-01-03T03:06:19.435Z,-0.20
2019-01-03T03:09:24.727Z,-0.30
2019-01-03T03:12:21.914Z,-0.40
2019-01-03T03:15:26.872Z,-0.40
2019-01-03T03:18:15.532Z,-0.40
2019-01-03T03:21:08.382Z,-0.50
2019-01-03T03:23:57.513Z,-0.50
2019-01-03T03:26:46.124Z,-0.60
2019-01-03T03:29:35.028Z,-0.60
2019-01-03T03:32:28.110Z,-0.60
2019-01-03T03:35:22.865Z,-0.60
2019-01-03T03:38:21.862Z,-0.50
2019-01-03T03:41:16.116Z,-0.50
2019-01-03T03:44:11.952Z,-0.40
2019-01-03T03:46:58.510Z,-0.40
2019-01-03T03:49:54.395Z,-0.40
2019-01-03T03:52:47.119Z,-0.40
2019-01-03T03:55:35.755Z,-0.40
2019-01-03T03:58:32.790Z,-0.30
2019-01-03T04:01:20.279Z,-0.30
2019-01-03T04:04:13.164Z,-0.40
2019-01-03T04:07:01.801Z,-0.40
2019-01-03T04:09:50.743Z,-0.40
2019-01-03T04:12:39.527Z,-0.40
2019-01-03T04:15:28.421Z,-0.40
2019-01-03T04:18:27.722Z,-0.40
2019-01-03T04:21:28.916Z,-0.40
2019-01-03T04:24:17.752Z,-0.40
2019-01-03T04:27:07.821Z,-0.50
2019-01-03T04:30:00.880Z,-0.50
2019-01-03T04:32:49.764Z,-0.40
2019-01-03T04:35:51.593Z,-0.40
2019-01-03T04:38:50.693Z,-0.40
2019-01-03T04:41:49.480Z,-0.40
2019-01-03T04:44:38.115Z,-0.40
2019-01-03T04:47:37.135Z,-0.40
2019-01-03T04:50:33.132Z,-0.40
2019-01-03T04:53:21.708Z,-0.40
2019-01-03T04:56:10.559Z,-0.40
2019-01-03T04:59:15.671Z,-0.40
2019-01-03T05:02:08.957Z,-0.30
2019-01-03T05:04:53.803Z,-0.30
2019-01-03T05:07:57.432Z,-0.30
2019-01-03T05:10:46.211Z,-0.20
2019-01-03T05:13:39.434Z,-0.20
2019-01-03T05:16:32.568Z,-0.20
2019-01-03T05:19:21.219Z,-0.20
2019-01-03T05:22:09.895Z,-0.20
2019-01-03T05:24:58.742Z,-0.10
2019-01-03T05:27:47.256Z,-0.10
2019-01-03T05:30:36.035Z,-0.10
2019-01-03T05:33:29.117Z,-0.10
2019-01-03T05:36:17.937Z,-0.10
2019-01-03T05:39:04.487Z,-0.10
2019-01-03T05:41:48.530Z,-0.10
2019-01-03T05:44:45.584Z,-0.10
2019-01-03T05:47:44.697Z,-0.10
2019-01-03T05:50:33.414Z,-0.10
2019-01-03T05:53:22.300Z,0.00
2019-01-03T05:56:11.107Z,0.00
2019-01-03T05:58:55.746Z,0.00
2019-01-03T06:01:57.886Z,0.00
2019-01-03T06:04:53.691Z,-0.10
2019-01-03T06:07:59.108Z,0.00
2019-01-03T06:10:47.483Z,-0.10
2019-01-03T06:13:55.664Z,-0.10
2019-01-03T06:16:51.499Z,-0.10
2019-01-03T06:19:50.822Z,-0.10
2019-01-03T06:22:39.373Z,-0.20
2019-01-03T06:25:38.674Z,-0.30
2019-01-03T06:28:28.890Z,-0.40
2019-01-03T06:31:21.974Z,-0.50
2019-01-03T06:34:10.457Z,-0.60
2019-01-03T06:37:02.819Z,-0.60
2019-01-03T06:40:01.958Z,-0.60
2019-01-03T06:42:58.703Z,-0.70
2019-01-03T06:45:47.554Z,-0.70
2019-01-03T06:48:52.642Z,-0.80
2019-01-03T06:51:45.173Z,-0.80
2019-01-03T06:54:50.491Z,-0.80
2019-01-03T06:57:40.547Z,-0.90
2019-01-03T07:00:48.652Z,-0.90
2019-01-03T07:03:41.335Z,-0.90
2019-01-03T07:06:37.330Z,-0.90
2019-01-03T07:09:39.623Z,-0.90
2019-01-03T07:12:28.241Z,-1.00
2019-01-03T07:15:17.001Z,-1.00
2019-01-03T07:18:05.849Z,-1.10
2019-01-03T07:21:01.849Z,-1.10
2019-01-03T07:23:52.182Z,-1.10
2019-01-03T07:26:47.608Z,-1.00
2019-01-03T07:29:36.612Z,-1.00
2019-01-03T07:32:41.869Z,-1.00
2019-01-03T07:35:30.733Z,-1.00
2019-01-03T07:38:19.262Z,-1.00
2019-01-03T07:41:20.943Z,-1.00
2019-01-03T07:44:26.174Z,-1.00
2019-01-03T07:47:14.619Z,-1.00
2019-01-03T07:50:16.962Z,-1.00
2019-01-03T07:53:08.531Z,-1.10
2019-01-03T07:55:58.572Z,-1.10
2019-01-03T07:58:47.170Z,-1.10
2019-01-03T08:01:41.050Z,-1.10
2019-01-03T08:04:34.103Z,-1.10
2019-01-03T08:07:42.349Z,-1.10
2019-01-03T08:10:32.394Z,-1.10
2019-01-03T08:13:21.213Z,-1.00
2019-01-03T08:16:29.350Z,-1.00
2019-01-03T08:19:13.050Z,-1.00
2019-01-03T08:22:15.636Z,-0.90
2019-01-03T08:25:17.599Z,-0.90
2019-01-03T08:28:06.618Z,-0.80
2019-01-03T08:30:51.326Z,-0.70
2019-01-03T08:33:40.183Z,-0.60
2019-01-03T08:36:30.238Z,-0.50
2019-01-03T08:39:20.318Z,-0.50
2019-01-03T08:42:09.131Z,-0.60
2019-01-03T08:45:01.911Z,-0.60
2019-01-03T08:47:46.887Z,-0.60
2019-01-03T08:50:42.964Z,-0.60
2019-01-03T08:53:48.025Z,-0.60
2019-01-03T08:56:36.676Z,-0.50
2019-01-03T08:59:44.905Z,-0.40
2019-01-03T09:02:40.697Z,-0.30
2019-01-03T09:05:29.310Z,-0.10
2019-01-03T09:08:22.364Z,0.00
2019-01-03T09:11:18.884Z,0.00
2019-01-03T09:14:07.748Z,0.10
2019-01-03T09:17:09.892Z,0.10
2019-01-03T09:19:58.746Z,0.10
2019-01-03T09:22:58.139Z,0.20
2019-01-03T09:25:57.323Z,0.20
2019-01-03T09:28:45.980Z,0.10
2019-01-03T09:31:34.683Z,0.10
2019-01-03T09:34:24.672Z,0.10
2019-01-03T09:37:30.054Z,0.10
2019-01-03T09:40:31.999Z,0.10
2019-01-03T09:43:20.784Z,0.10
2019-01-03T09:45:51.988Z,0.10
2019-01-03T09:48:23.564Z,0.10
2019-01-03T09:50:54.786Z,0.10
2019-01-03T09:53:25.955Z,0.10
2019-01-03T09:55:57.150Z,0.10
2019-01-03T09:58:28.218Z,0.20
2019-01-03T10:00:59.430Z,0.20
2019-01-03T10:03:30.710Z,0.20
2019-01-03T10:06:01.913Z,0.20
2019-01-03T10:08:33.253Z,0.20
2019-01-03T10:11:04.645Z,0.20
2019-01-03T10:13:35.818Z,0.20
2019-01-03T10:16:07.023Z,0.10
2019-01-03T10:18:38.231Z,0.20
2019-01-03T10:21:09.594Z,0.10
2019-01-03T10:23:40.886Z,0.10
2019-01-03T10:26:12.247Z,0.20
2019-01-03T10:28:43.434Z,0.20
2019-01-03T10:31:14.591Z,0.20
2019-01-03T10:33:45.768Z,0.20
2019-01-03T10:36:16.833Z,0.10
2019-01-03T10:38:47.906Z,0.20
2019-01-03T10:41:19.105Z,0.30
2019-01-03T10:43:50.303Z,0.30
2019-01-03T10:46:21.743Z,0.30
2019-01-03T10:48:53.288Z,0.30
2019-01-03T10:51:24.777Z,0.30
2019-01-03T10:53:56.258Z,0.30
2019-01-03T10:56:27.457Z,0.30
2019-01-03T10:58:58.797Z,0.30
2019-01-03T11:01:29.952Z,0.30
2019-01-03T11:04:01.161Z,0.40
2019-01-03T11:06:32.294Z,0.40
2019-01-03T11:09:03.492Z,0.40
2019-01-03T11:11:34.681Z,0.40
2019-01-03T11:14:05.832Z,0.40
2019-01-03T11:16:37.038Z,0.40
2019-01-03T11:19:08.198Z,0.30
2019-01-03T11:21:39.286Z,0.30
2019-01-03T11:24:10.378Z,0.40
2019-01-03T11:26:41.529Z,0.40
2019-01-03T11:29:12.596Z,0.40
2019-01-03T11:31:43.718Z,0.50
2019-01-03T11:34:14.851Z,0.60
2019-01-03T11:36:45.998Z,0.70
2019-01-03T11:39:17.175Z,0.80
2019-01-03T11:41:48.393Z,0.80
2019-01-03T11:44:19.703Z,0.80
2019-01-03T11:46:51.266Z,0.70
2019-01-03T11:49:22.477Z,0.80
2019-01-03T11:51:53.669Z,0.80
2019-01-03T11:54:24.886Z,0.80
2019-01-03T11:56:56.116Z,0.70
2019-01-03T11:59:27.268Z,0.70
2019-01-03T12:01:58.430Z,0.70
2019-01-03T12:04:29.601Z,0.80
2019-01-03T12:07:00.853Z,0.90
2019-01-03T12:09:32.049Z,0.90
2019-01-03T12:12:03.240Z,1.10
2019-01-03T12:14:34.581Z,1.10
2019-01-03T12:17:06.041Z,1.00
2019-01-03T12:19:37.500Z,1.00
2019-01-03T12:22:08.640Z,0.90
2019-01-03T12:24:39.738Z,0.90
2019-01-03T12:27:10.856Z,0.90
2019-01-03T12:29:42.095Z,1.00
2019-01-03T12:32:13.344Z,0.90
2019-01-03T12:34:44.710Z,0.90
2019-01-03T12:37:15.998Z,0.80
2019-01-03T12:39:47.218Z,0.80
2019-01-03T12:42:18.301Z,0.90
2019-01-03T12:44:49.513Z,0.90
2019-01-03T12:47:20.670Z,0.80
2019-01-03T12:49:51.879Z,0.80
2019-01-03T12:52:23.030Z,0.80
2019-01-03T12:54:54.138Z,0.80
2019-01-03T12:57:25.262Z,0.70
2019-01-03T12:59:56.458Z,0.70
2019-01-03T13:02:27.559Z,0.60
2019-01-03T13:04:58.968Z,0.70
2019-01-03T13:07:30.197Z,0.70
2019-01-03T13:10:01.838Z,0.90
2019-01-03T13:12:33.102Z,1.00
2019-01-03T13:15:04.276Z,1.00
2019-01-03T13:17:35.435Z,0.80
2019-01-03T13:20:07.501Z,0.70
2019-01-03T13:22:38.606Z,0.70
2019-01-03T13:25:10.028Z,0.70
2019-01-03T13:27:42.314Z,0.60
2019-01-03T13:30:13.577Z,0.50
2019-01-03T13:32:44.670Z,0.50
2019-01-03T13:35:15.929Z,0.40
2019-01-03T13:37:47.134Z,0.30
2019-01-03T13:40:18.291Z,0.30
2019-01-03T13:42:49.498Z,0.20
2019-01-03T13:45:20.707Z,0.20
2019-01-03T13:47:51.848Z,0.20
2019-01-03T13:50:23.102Z,0.20
2019-01-03T13:52:54.382Z,0.10
2019-01-03T13:55:25.520Z,0.00
2019-01-03T13:57:56.729Z,0.00
2019-01-03T14:00:27.912Z,0.00
2019-01-03T14:02:59.097Z,0.00
2019-01-03T14:05:30.382Z,-0.10
2019-01-03T14:08:01.654Z,-0.10
2019-01-03T14:10:33.060Z,-0.10
2019-01-03T14:13:04.228Z,-0.10
2019-01-03T14:15:35.462Z,-0.10
2019-01-03T14:18:06.666Z,-0.10
2019-01-03T14:20:37.985Z,-0.10
2019-01-03T14:23:09.252Z,-0.10
2019-01-03T14:25:40.489Z,-0.10
2019-01-03T14:28:11.782Z,-0.20
2019-01-03T14:30:42.981Z,-0.20
2019-01-03T14:33:14.111Z,-0.20
2019-01-03T14:35:45.512Z,-0.30
2019-01-03T14:38:16.770Z,-0.40
2019-01-03T14:40:48.169Z,-0.40
2019-01-03T14:43:19.688Z,-0.50
2019-01-03T14:45:50.895Z,-0.60
2019-01-03T14:48:22.138Z,-0.60
2019-01-03T14:50:53.380Z,-0.60
2019-01-03T14:53:24.620Z,-0.60
2019-01-03T14:55:55.855Z,-0.70
2019-01-03T14:58:27.107Z,-0.70
2019-01-03T15:00:58.307Z,-0.80
2019-01-03T15:03:29.498Z,-0.90
2019-01-03T15:06:00.734Z,-0.90
2019-01-03T15:08:31.894Z,-0.90
2019-01-03T15:11:03.102Z,-0.90
2019-01-03T15:13:34.296Z,-0.90
2019-01-03T15:16:05.479Z,-0.90
2019-01-03T15:18:36.746Z,-0.90
2019-01-03T15:21:07.939Z,-1.00
2019-01-03T15:23:39.205Z,-1.00
2019-01-03T15:26:10.520Z,-1.00
2019-01-03T15:28:42.019Z,-1.00
2019-01-03T15:31:13.362Z,-1.10
2019-01-03T15:33:44.702Z,-1.10
2019-01-03T15:36:15.854Z,-1.20
2019-01-03T15:38:47.243Z,-1.20
2019-01-03T15:41:18.723Z,-1.20
2019-01-03T15:43:49.884Z,-1.20
2019-01-03T15:46:21.075Z,-1.10
2019-01-03T15:48:52.317Z,-1.10
2019-01-03T15:51:23.563Z,-1.00
2019-01-03T15:53:54.816Z,-1.00
2019-01-03T15:56:26.023Z,-0.90
2019-01-03T15:58:57.257Z,-0.90
2019-01-03T16:01:29.032Z,-0.90
2019-01-03T16:04:00.200Z,-1.00
2019-01-03T16:06:31.332Z,-1.00
2019-01-03T16:09:02.625Z,-1.10
2019-01-03T16:11:33.917Z,-1.20
2019-01-03T16:14:05.109Z,-1.20
2019-01-03T16:16:36.340Z,-1.20
2019-01-03T16:19:07.462Z,-1.20
2019-01-03T16:21:38.604Z,-1.20
2019-01-03T16:24:09.757Z,-1.20
2019-01-03T16:26:40.913Z,-1.30
2019-01-03T16:29:11.999Z,-1.30
2019-01-03T16:31:43.081Z,-1.30
2019-01-03T16:34:14.213Z,-1.30
2019-01-03T16:36:45.367Z,-1.20
2019-01-03T16:39:16.635Z,-1.30
2019-01-03T16:41:47.798Z,-1.30
2019-01-03T16:44:18.914Z,-1.20
2019-01-03T16:46:50.068Z,-1.20
2019-01-03T16:49:21.344Z,-1.20
2019-01-03T16:51:52.530Z,-1.20
2019-01-03T16:54:23.629Z,-1.10
2019-01-03T16:56:55.243Z,-1.20
2019-01-03T16:59:26.406Z,-1.20
2019-01-03T17:01:57.765Z,-1.30
2019-01-03T17:04:30.453Z,-1.30
2019-01-03T17:07:07.823Z,-1.30
2019-01-03T17:09:39.489Z,-1.30
2019-01-03T17:12:14.799Z,-1.30
2019-01-03T17:14:46.062Z,-1.40
2019-01-03T17:17:17.308Z,-1.40
2019-01-03T17:19:48.645Z,-1.40
2019-01-03T17:22:19.826Z,-1.40
2019-01-03T17:24:51.189Z,-1.50
2019-01-03T17:27:22.577Z,-1.50
2019-01-03T17:29:53.830Z,-1.50
2019-01-03T17:32:25.097Z,-1.50
2019-01-03T17:34:56.562Z,-1.40
2019-01-03T17:37:27.666Z,-1.40
2019-01-03T17:39:58.989Z,-1.30
2019-01-03T17:42:30.624Z,-1.20
2019-01-03T17:45:01.847Z,-1.20
2019-01-03T17:47:33.086Z,-1.20
2019-01-03T17:50:04.359Z,-1.20
2019-01-03T17:52:36.119Z,-1.30
2019-01-03T17:55:08.384Z,-1.30
2019-01-03T17:57:39.592Z,-1.30
2019-01-03T18:00:17.857Z,-1.40
2019-01-03T18:02:49.481Z,-1.40
2019-01-03T18:05:20.838Z,-1.50
2019-01-03T18:07:52.233Z,-1.50
2019-01-03T18:10:23.436Z,-1.50
2019-01-03T18:12:55.891Z,-1.60
2019-01-03T18:15:27.224Z,-1.60
2019-01-03T18:17:58.434Z,-1.70
2019-01-03T18:20:29.617Z,-1.70
2019-01-03T18:23:00.810Z,-1.70
2019-01-03T18:25:32.002Z,-1.70
2019-01-03T18:28:03.124Z,-1.80
2019-01-03T18:30:35.282Z,-1.80
2019-01-03T18:33:06.630Z,-1.90
2019-01-03T18:35:38.986Z,-1.90
2019-01-03T18:38:10.256Z,-2.00
2019-01-03T18:40:41.446Z,-2.00
2019-01-03T18:43:12.693Z,-2.00
2019-01-03T18:45:44.116Z,-2.00
2019-01-03T18:48:15.305Z,-2.00
2019-01-03T18:50:46.541Z,-2.00
2019-01-03T18:53:17.885Z,-2.10
2019-01-03T18:55:49.141Z,-2.10
2019-01-03T18:58:20.721Z,-2.10
2019-01-03T19:00:51.999Z,-2.00
2019-01-03T19:03:23.275Z,-2.00
2019-01-03T19:05:54.812Z,-2.10
2019-01-03T19:08:26.377Z,-2.10
2019-01-03T19:10:58.211Z,-2.10
2019-01-03T19:13:30.007Z,-2.20
2019-01-03T19:16:01.264Z,-2.20
2019-01-03T19:18:32.654Z,-2.20
2019-01-03T19:21:03.899Z,-2.20
2019-01-03T19:23:35.141Z,-2.20
2019-01-03T19:26:07.205Z,-2.20
2019-01-03T19:28:38.609Z,-2.20
2019-01-03T19:31:09.968Z,-2.20
2019-01-03T19:33:43.441Z,-2.20
2019-01-03T19:36:14.721Z,-2.20
2019-01-03T19:38:46.023Z,-2.10
2019-01-03T19:41:17.582Z,-2.10
2019-01-03T19:43:49.314Z,-2.20
2019-01-03T19:46:20.911Z,-2.20
2019-01-03T19:48:52.245Z,-2.20
2019-01-03T19:51:23.529Z,-2.10
2019-01-03T19:53:54.944Z,-2.10
2019-01-03T19:56:29.364Z,-2.10
2019-01-03T19:59:00.583Z,-2.10
2019-01-03T20:01:32.918Z,-2.20
2019-01-03T20:04:04.175Z,-2.20
2019-01-03T20:06:35.652Z,-2.20
2019-01-03T20:09:07.524Z,-2.20
2019-01-03T20:11:38.887Z,-2.20
2019-01-03T20:14:11.354Z,-2.20
2019-01-03T20:16:45.454Z,-2.20
2019-01-03T20:19:16.804Z,-2.20
2019-01-03T20:21:48.014Z,-2.20
2019-01-03T20:24:19.196Z,-2.20
2019-01-03T20:26:50.461Z,-2.20
2019-01-03T20:29:22.842Z,-2.20
2019-01-03T20:31:54.109Z,-2.20
2019-01-03T20:34:25.803Z,-2.20
2019-01-03T20:36:57.029Z,-2.30
2019-01-03T20:39:28.390Z,-2.30
2019-01-03T20:41:59.690Z,-2.30
2019-01-03T20:44:30.955Z,-2.40
2019-01-03T20:47:02.178Z,-2.40
2019-01-03T20:49:34.549Z,-2.50
2019-01-03T20:52:06.050Z,-2.50
2019-01-03T20:54:37.359Z,-2.50
2019-01-03T20:57:08.604Z,-2.60
2019-01-03T20:59:39.856Z,-2.60
2019-01-03T21:02:11.051Z,-2.60
2019-01-03T21:04:42.940Z,-2.60
2019-01-03T21:07:14.151Z,-2.60
2019-01-03T21:09:45.483Z,-2.70
2019-01-03T21:12:16.706Z,-2.70
2019-01-03T21:14:48.254Z,-2.70
2019-01-03T21:17:19.808Z,-2.60
2019-01-03T21:19:51.070Z,-2.60
2019-01-03T21:22:22.546Z,-2.60
2019-01-03T21:24:53.783Z,-2.60
2019-01-03T21:27:25.263Z,-2.50
2019-01-03T21:29:56.820Z,-2.50
2019-01-03T21:32:28.223Z,-2.50
2019-01-03T21:34:59.789Z,-2.50
2019-01-03T21:37:31.078Z,-2.40
2019-01-03T21:40:02.430Z,-2.40
2019-01-03T21:42:33.753Z,-2.40
2019-01-03T21:45:05.341Z,-2.30
2019-01-03T21:47:36.599Z,-2.30
2019-01-03T21:50:10.534Z,-2.30
2019-01-03T21:52:43.057Z,-2.40
2019-01-03T21:55:14.503Z,-2.40
2019-01-03T21:57:46.152Z,-2.40
2019-01-03T22:00:17.487Z,-2.40
2019-01-03T22:02:49.318Z,-2.50
2019-01-03T22:05:22.018Z,-2.50
2019-01-03T22:07:53.310Z,-2.50
2019-01-03T22:10:24.649Z,-2.60
2019-01-03T22:12:55.937Z,-2.60
2019-01-03T22:15:27.246Z,-2.50
2019-01-03T22:17:58.503Z,-2.50
2019-01-03T22:20:29.813Z,-2.50
2019-01-03T22:23:01.173Z,-2.50
2019-01-03T22:25:32.486Z,-2.50
2019-01-03T22:28:03.784Z,-2.50
2019-01-03T22:30:35.305Z,-2.50
2019-01-03T22:33:06.514Z,-2.50
2019-01-03T22:35:38.164Z,-2.40
2019-01-03T22:38:09.417Z,-2.40
2019-01-03T22:40:41.115Z,-2.40
2019-01-03T22:43:13.385Z,-2.30
2019-01-03T22:45:45.724Z,-2.30
2019-01-03T22:48:19.001Z,-2.30
2019-01-03T22:50:50.468Z,-2.30
2019-01-03T22:53:21.766Z,-2.30
2019-01-03T22:55:53.256Z,-2.30
2019-01-03T22:58:24.538Z,-2.30
2019-01-03T23:00:57.807Z,-2.30
2019-01-03T23:03:29.022Z,-2.30
2019-01-03T23:06:00.352Z,-2.30
2019-01-03T23:08:31.615Z,-2.30
2019-01-03T23:11:02.982Z,-2.30
2019-01-03T23:13:34.242Z,-2.20
2019-01-03T23:16:07.189Z,-2.20
2019-01-03T23:18:38.871Z,-2.20
2019-01-03T23:21:10.325Z,-2.20
2019-01-03T23:23:41.685Z,-2.10
2019-01-03T23:26:12.923Z,-2.10
2019-01-03T23:28:44.304Z,-2.10
2019-01-03T23:31:16.849Z,-2.10
2019-01-03T23:33:48.393Z,-2.10
2019-01-03T23:36:19.658Z,-2.10
2019-01-03T23:38:51.919Z,-2.10
2019-01-03T23:41:23.260Z,-2.10
2019-01-03T23:43:55.046Z,-2.10
2019-01-03T23:46:26.801Z,-2.10
2019-01-03T23:48:58.078Z,-2.00
2019-01-03T23:51:29.868Z,-2.10
2019-01-03T23:54:01.184Z,-2.00
2019-01-03T23:56:33.517Z,-2.00
2019-01-03T23:59:04.859Z,-2.00
